Time;durP1;ratioP1;P1;durP2;ratioP2;P2;SDS_P1;SDS_P2;PMS_P1;PMS_P2;Temp;Humidity;BMP_temperature;BMP_pressure;BME280_temperature;BME280_humidity;BME280_pressure;Samples;Min_cycle;Max_cycle;Signal;HPM_P1;HPM_P2
2022/08/03 00:01:55;;;;;;;2.00;1.27;;;21.30;1.00;;;;;;5015831;28;20184;-83
2022/08/03 00:04:21;;;;;;;3.30;1.57;;;21.30;1.00;;;;;;5015444;28;20187;-84
2022/08/03 00:06:46;;;;;;;3.23;1.60;;;21.30;1.00;;;;;;5015071;28;20174;-84
2022/08/03 00:09:12;;;;;;;1.67;1.00;;;21.10;1.00;;;;;;5015330;28;20175;-83
2022/08/03 00:11:37;;;;;;;1.13;1.03;;;21.10;1.00;;;;;;5015314;28;20297;-83
2022/08/03 00:14:04;;;;;;;2.13;1.30;;;21.00;1.00;;;;;;5015241;28;20171;-85
2022/08/03 00:16:30;;;;;;;2.50;1.73;;;21.00;1.00;;;;;;5015180;28;20175;-89
2022/08/03 00:18:55;;;;;;;2.10;1.30;;;20.90;1.00;;;;;;5015344;28;20462;-83
2022/08/03 00:21:21;;;;;;;1.20;0.93;;;20.80;15.30;;;;;;5015145;28;20174;-89
2022/08/03 00:23:46;;;;;;;3.23;1.40;;;20.70;86.10;;;;;;5014982;28;20196;-84
2022/08/03 00:26:12;;;;;;;1.77;1.40;;;20.60;54.60;;;;;;5014855;28;20222;-84
2022/08/03 00:28:37;;;;;;;2.23;1.90;;;20.70;1.00;;;;;;5014982;28;20171;-88
2022/08/03 00:31:03;;;;;;;1.47;1.03;;;20.70;1.00;;;;;;4997192;28;20176;-85
2022/08/03 00:33:28;;;;;;;2.20;1.50;;;20.70;1.00;;;;;;5014754;28;20526;-86
2022/08/03 00:35:53;;;;;;;2.27;1.67;;;20.60;27.70;;;;;;5014260;28;20175;-83
2022/08/03 00:38:19;;;;;;;1.60;0.80;;;20.60;8.80;;;;;;5014506;28;20755;-83
2022/08/03 00:40:45;;;;;;;2.80;1.60;;;20.60;4.10;;;;;;5014554;28;20171;-85
2022/08/03 00:43:11;;;;;;;2.13;1.60;;;20.50;25.10;;;;;;5014493;28;20640;-84
2022/08/03 00:45:39;;;;;;;1.70;1.60;;;20.40;97.50;;;;;;5014444;28;20418;-84
2022/08/03 00:48:07;;;;;;;3.03;1.33;;;20.30;90.70;;;;;;5014319;28;20176;-83
2022/08/03 00:50:38;;;;;;;4.93;1.93;;;20.30;99.90;;;;;;5013779;28;20465;-84
2022/08/03 00:53:06;;;;;;;1.90;1.53;;;20.20;99.90;;;;;;4996509;28;20845;-84
2022/08/03 00:55:33;;;;;;;1.63;1.47;;;20.10;99.90;;;;;;5014291;28;20418;-85
2022/08/03 00:58:00;;;;;;;1.47;0.93;;;19.90;99.90;;;;;;5014236;28;20568;-85
2022/08/03 01:00:26;;;;;;;2.50;1.33;;;19.70;99.90;;;;;;5014113;28;20483;-83
2022/08/03 01:02:52;;;;;;;1.90;1.37;;;19.50;99.90;;;;;;5014276;28;20418;-84
2022/08/03 01:05:20;;;;;;;3.20;0.90;;;19.40;99.90;;;;;;5013846;28;20511;-84
2022/08/03 01:08:01;;;;;;;1.23;1.03;;;19.40;99.90;;;;;;5014262;28;20419;-85
2022/08/03 01:11:10;;;;;;;2.40;1.40;;;19.40;99.90;;;;;;5014105;28;20471;-84
2022/08/03 01:13:49;;;;;;;1.50;1.10;;;19.60;99.90;;;;;;5014104;28;20493;-85
2022/08/03 01:16:33;;;;;;;2.03;1.20;;;19.50;99.90;;;;;;5013930;28;20504;-84
2022/08/03 01:19:35;;;;;;;2.20;1.67;;;19.40;99.90;;;;;;5013882;28;20511;-85
2022/08/03 01:22:13;;;;;;;1.23;0.97;;;19.40;99.90;;;;;;5013723;28;20477;-82
2022/08/03 01:24:55;;;;;;;2.10;1.03;;;19.50;99.90;;;;;;5013979;28;20427;-84
2022/08/03 01:27:28;;;;;;;5.10;1.47;;;19.50;99.90;;;;;;5014009;28;20418;-84
2022/08/03 01:30:06;;;;;;;4.10;1.90;;;19.50;99.90;;;;;;5013860;28;20421;-85
2022/08/03 01:32:38;;;;;;;2.10;1.40;;;19.30;99.90;;;;;;5013870;28;20405;-85
2022/08/03 01:35:08;;;;;;;3.80;1.53;;;19.20;99.90;;;;;;5013308;28;20405;-84
2022/08/03 01:37:41;;;;;;;2.30;1.73;;;19.10;99.90;;;;;;5013779;28;20492;-83
2022/08/03 01:40:08;;;;;;;1.70;1.20;;;19.10;99.90;;;;;;5013643;28;20437;-82
2022/08/03 01:42:36;;;;;;;2.33;2.03;;;19.30;99.90;;;;;;5013683;28;20421;-84
2022/08/03 01:45:03;;;;;;;2.40;1.70;;;19.30;99.90;;;;;;4995989;28;20475;-83
2022/08/03 01:47:30;;;;;;;1.87;1.63;;;19.00;99.90;;;;;;5013480;28;20401;-85
2022/08/03 01:49:57;;;;;;;1.60;1.40;;;18.90;99.90;;;;;;4995998;28;20465;-86
2022/08/03 01:52:24;;;;;;;2.07;1.47;;;18.80;99.90;;;;;;5013941;28;20766;-84
2022/08/03 01:54:52;;;;;;;1.73;1.50;;;18.70;99.90;;;;;;5013566;28;20423;-82
2022/08/03 01:57:21;;;;;;;2.57;1.20;;;18.70;99.90;;;;;;5013497;28;20425;-82
2022/08/03 01:59:50;;;;;;;2.30;1.97;;;18.60;99.90;;;;;;5013524;28;20475;-83
2022/08/03 02:02:16;;;;;;;1.60;1.27;;;18.50;99.90;;;;;;5013542;28;20416;-81
2022/08/03 02:04:44;;;;;;;2.70;1.70;;;18.50;99.90;;;;;;5012360;28;20505;-83
2022/08/03 02:07:11;;;;;;;2.27;1.67;;;18.40;99.90;;;;;;5013522;28;20432;-85
2022/08/03 02:09:40;;;;;;;1.77;1.30;;;18.40;99.90;;;;;;5013555;28;20776;-83
2022/08/03 02:12:09;;;;;;;1.83;1.53;;;18.40;99.90;;;;;;5013514;28;20472;-82
2022/08/03 02:14:35;;;;;;;1.70;1.10;;;18.50;99.90;;;;;;5013249;28;20451;-84
2022/08/03 02:17:01;;;;;;;1.70;1.60;;;18.60;99.90;;;;;;5013366;28;20964;-82
2022/08/03 02:19:28;;;;;;;1.87;1.23;;;18.70;99.90;;;;;;5013178;28;20499;-86
2022/08/03 02:21:55;;;;;;;4.90;2.47;;;18.80;99.90;;;;;;5013088;28;20426;-83
2022/08/03 02:24:21;;;;;;;3.70;2.50;;;18.70;99.90;;;;;;5013305;28;20832;-85
2022/08/03 02:26:48;;;;;;;2.40;1.43;;;18.80;99.90;;;;;;5013231;28;20413;-82
2022/08/03 02:29:20;;;;;;;2.23;2.07;;;18.80;99.90;;;;;;5013296;28;20533;-82
2022/08/03 02:31:47;;;;;;;2.03;1.20;;;18.60;99.90;;;;;;5013323;28;20423;-85
2022/08/03 02:34:14;;;;;;;2.70;1.60;;;18.60;99.90;;;;;;5012944;28;20420;-81
2022/08/03 02:36:42;;;;;;;1.70;1.07;;;18.40;99.90;;;;;;5012841;28;20422;-85
2022/08/03 02:39:12;;;;;;;2.17;1.70;;;18.20;99.90;;;;;;5012837;28;20476;-84
2022/08/03 02:41:44;;;;;;;2.40;1.27;;;18.20;99.90;;;;;;5012921;28;20413;-85
2022/08/03 02:44:11;;;;;;;2.17;1.73;;;18.20;99.90;;;;;;5012995;28;20424;-85
2022/08/03 02:46:41;;;;;;;2.67;2.03;;;18.20;99.90;;;;;;5012966;28;20526;-84
2022/08/03 02:49:09;;;;;;;2.93;1.83;;;18.20;99.90;;;;;;5012928;28;20417;-83
2022/08/03 02:51:36;;;;;;;5.53;1.90;;;18.20;99.90;;;;;;5012459;28;20550;-85
2022/08/03 02:54:03;;;;;;;2.97;2.43;;;18.20;99.90;;;;;;5012932;28;20417;-84
2022/08/03 02:56:29;;;;;;;2.50;2.13;;;18.20;99.90;;;;;;5012883;28;20925;-84
2022/08/03 02:58:57;;;;;;;2.23;1.70;;;18.20;99.90;;;;;;5012762;28;20476;-84
2022/08/03 03:01:25;;;;;;;2.87;2.50;;;18.40;99.90;;;;;;5012745;28;20411;-84
2022/08/03 03:03:53;;;;;;;2.50;1.63;;;18.30;99.90;;;;;;4995166;28;20770;-83
2022/08/03 03:06:20;;;;;;;3.30;1.37;;;18.40;99.90;;;;;;5012554;28;20415;-84
2022/08/03 03:08:47;;;;;;;2.70;1.70;;;18.20;99.90;;;;;;5012988;28;20775;-84
2022/08/03 03:11:13;;;;;;;3.43;2.40;;;18.20;99.90;;;;;;4995320;28;20833;-83
2022/08/03 03:13:42;;;;;;;2.80;1.80;;;18.10;99.90;;;;;;5012911;28;20498;-85
2022/08/03 03:16:10;;;;;;;3.33;2.20;;;17.90;99.90;;;;;;5015486;28;20514;-83
2022/08/03 03:18:36;;;;;;;2.80;2.47;;;17.90;99.90;;;;;;4998639;28;20469;-83
2022/08/03 03:21:03;;;;;;;2.07;1.87;;;17.80;99.90;;;;;;5015868;28;20920;-83
2022/08/03 03:23:30;;;;;;;2.40;2.20;;;17.80;99.90;;;;;;5016197;28;20450;-84
2022/08/03 03:25:57;;;;;;;3.30;1.80;;;17.80;99.90;;;;;;5016167;28;20465;-83
2022/08/03 03:28:24;;;;;;;2.43;1.63;;;17.80;99.90;;;;;;5016117;28;20430;-83
2022/08/03 03:30:50;;;;;;;3.40;2.27;;;17.80;99.90;;;;;;5016084;28;20934;-84
2022/08/03 03:33:16;;;;;;;2.40;1.50;;;17.80;99.90;;;;;;5016084;28;20427;-83
2022/08/03 03:35:43;;;;;;;2.10;1.13;;;17.70;99.90;;;;;;5015753;28;20888;-85
2022/08/03 03:38:09;;;;;;;2.37;1.77;;;17.60;99.90;;;;;;5015976;28;20451;-81
2022/08/03 03:40:35;;;;;;;2.17;1.50;;;17.60;99.90;;;;;;4998137;28;20426;-81
2022/08/03 03:43:02;;;;;;;2.70;2.17;;;17.60;99.90;;;;;;5015705;28;20180;-82
2022/08/03 03:45:29;;;;;;;2.93;1.80;;;17.70;99.90;;;;;;5015624;28;20787;-82
2022/08/03 03:47:55;;;;;;;2.80;2.17;;;17.80;99.90;;;;;;5015599;28;20817;-82
2022/08/03 03:50:21;;;;;;;2.97;2.63;;;18.10;99.90;;;;;;5014982;28;20467;-81
2022/08/03 03:52:47;;;;;;;3.37;2.47;;;18.30;99.90;;;;;;4997977;28;20187;-82
2022/08/03 03:55:17;;;;;;;2.93;2.30;;;18.40;99.90;;;;;;5015364;28;20491;-81
2022/08/03 03:57:42;;;;;;;3.10;2.80;;;18.50;99.90;;;;;;5015447;28;20242;-82
2022/08/03 04:00:08;;;;;;;2.63;2.43;;;18.60;99.90;;;;;;5015104;28;20486;-82
2022/08/03 04:02:34;;;;;;;3.10;2.90;;;18.60;99.90;;;;;;4997755;28;20176;-82
2022/08/03 04:10:58;;;;;;;3.23;1.93;;;18.70;99.90;;;;;;5015525;28;20423;-84
2022/08/03 04:13:28;;;;;;;3.30;2.13;;;18.70;99.90;;;;;;5015063;28;20420;-84
2022/08/03 04:15:56;;;;;;;2.60;1.90;;;18.80;99.90;;;;;;5014995;28;20427;-85
2022/08/03 04:18:23;;;;;;;3.13;2.50;;;18.80;99.90;;;;;;5014872;28;20535;-84
2022/08/03 04:20:50;;;;;;;2.40;1.70;;;18.80;99.90;;;;;;4996582;28;20451;-83
2022/08/03 04:23:19;;;;;;;2.90;2.63;;;18.80;99.90;;;;;;5014891;28;20514;-86
2022/08/03 04:25:47;;;;;;;3.57;2.10;;;19.00;99.90;;;;;;5014852;28;20909;-84
2022/08/03 04:28:15;;;;;;;3.50;2.50;;;18.90;99.90;;;;;;5014266;28;20429;-84
2022/08/03 04:30:47;;;;;;;3.50;2.60;;;18.90;99.90;;;;;;5014760;28;20425;-81
2022/08/03 04:33:13;;;;;;;5.63;3.70;;;19.00;99.90;;;;;;5014766;28;20432;-81
2022/08/03 04:35:40;;;;;;;2.60;2.40;;;19.00;99.90;;;;;;5014302;28;20427;-81
2022/08/03 04:38:06;;;;;;;3.70;3.20;;;19.10;99.90;;;;;;5014591;28;20451;-81
2022/08/03 04:40:35;;;;;;;2.47;2.27;;;19.00;99.90;;;;;;5014536;28;20804;-81
2022/08/03 04:43:01;;;;;;;3.40;2.77;;;19.10;99.90;;;;;;5014455;28;20416;-81
2022/08/03 04:45:27;;;;;;;3.40;2.23;;;19.10;99.90;;;;;;5014498;28;20507;-81
2022/08/03 04:47:53;;;;;;;2.87;2.10;;;19.10;99.90;;;;;;5014471;28;20417;-83
2022/08/03 04:50:20;;;;;;;2.53;2.13;;;19.10;99.90;;;;;;5013847;28;20944;-81
2022/08/03 04:52:45;;;;;;;2.77;2.23;;;19.10;99.90;;;;;;5014369;28;20823;-81
2022/08/03 04:55:11;;;;;;;2.97;2.60;;;19.00;99.90;;;;;;5014371;28;20499;-82
2022/08/03 04:57:36;;;;;;;3.20;2.77;;;18.90;99.90;;;;;;4996607;28;20201;-82
2022/08/03 05:00:04;;;;;;;3.90;2.80;;;18.90;99.90;;;;;;4996467;28;20554;-82
2022/08/03 05:02:30;;;;;;;4.13;2.73;;;18.90;99.90;;;;;;4996639;28;20174;-82
2022/08/03 05:04:56;;;;;;;3.20;2.70;;;18.90;99.90;;;;;;4996212;28;20507;-82
2022/08/03 05:07:22;;;;;;;2.80;2.50;;;18.90;99.90;;;;;;5014140;28;20519;-83
2022/08/03 05:09:47;;;;;;;3.33;3.03;;;18.90;99.90;;;;;;4996388;28;20186;-82
2022/08/03 05:12:13;;;;;;;3.43;2.70;;;19.00;99.90;;;;;;5014002;28;20213;-83
2022/08/03 05:14:38;;;;;;;3.53;3.00;;;19.10;99.90;;;;;;5013792;28;20184;-83
2022/08/03 05:17:04;;;;;;;2.83;2.43;;;19.10;99.90;;;;;;5014041;28;20592;-83
2022/08/03 05:19:30;;;;;;;3.53;2.60;;;19.20;99.90;;;;;;5013509;28;20671;-83
2022/08/03 05:21:56;;;;;;;3.23;2.47;;;19.30;99.90;;;;;;5013687;28;20452;-82
2022/08/03 05:24:21;;;;;;;3.47;3.17;;;19.40;99.90;;;;;;5013900;28;20193;-82
2022/08/03 05:26:46;;;;;;;2.57;2.37;;;19.60;99.90;;;;;;5013656;28;20533;-83
2022/08/03 05:29:12;;;;;;;3.20;2.63;;;19.70;99.90;;;;;;5013435;28;20181;-84
2022/08/03 05:31:37;;;;;;;2.93;2.63;;;19.70;81.30;;;;;;4999728;28;20257;-83
2022/08/03 05:34:03;;;;;;;2.93;2.40;;;19.80;89.50;;;;;;5000861;28;20202;-82
2022/08/03 05:36:28;;;;;;;2.50;2.30;;;20.00;17.30;;;;;;5003312;28;20201;-82
2022/08/03 05:38:54;;;;;;;4.40;3.70;;;20.00;1.00;;;;;;5000890;28;20271;-84
2022/08/03 05:41:19;;;;;;;3.47;2.73;;;20.10;1.00;;;;;;5002866;28;20184;-82
2022/08/03 05:43:45;;;;;;;2.30;1.97;;;20.30;1.00;;;;;;5003741;28;20190;-83
2022/08/03 05:46:11;;;;;;;3.20;2.60;;;20.50;1.00;;;;;;4998894;28;20524;-86
2022/08/03 05:48:37;;;;;;;3.40;2.77;;;20.70;1.00;;;;;;5004493;28;20565;-82
2022/08/03 05:51:05;;;;;;;2.50;2.03;;;21.20;1.00;;;;;;5004028;28;20284;-81
2022/08/03 05:53:33;;;;;;;2.83;2.63;;;21.50;99.90;;;;;;5011274;28;20595;-82
2022/08/03 05:55:59;;;;;;;3.30;3.00;;;21.80;99.90;;;;;;5012788;28;20440;-83
2022/08/03 05:58:25;;;;;;;5.07;2.67;;;22.00;99.90;;;;;;5012662;28;20967;-82
2022/08/03 06:00:50;;;;;;;3.07;2.87;;;22.00;1.00;;;;;;5012942;28;20657;-83
2022/08/03 06:03:16;;;;;;;3.13;2.53;;;22.10;1.00;;;;;;5012977;28;20176;-84
2022/08/03 06:05:41;;;;;;;2.87;2.60;;;22.30;99.90;;;;;;4994750;28;20180;-82
2022/08/03 06:08:07;;;;;;;2.80;2.57;;;22.80;99.90;;;;;;4995155;28;20228;-83
2022/08/03 06:10:32;;;;;;;2.20;2.00;;;23.40;99.90;;;;;;5012657;28;20192;-83
2022/08/03 06:12:58;;;;;;;2.60;2.40;;;23.80;99.90;;;;;;4995358;28;20170;-83
2022/08/03 06:15:23;;;;;;;2.43;2.20;;;23.60;1.00;;;;;;5012747;28;20186;-83
2022/08/03 06:17:50;;;;;;;2.60;2.27;;;23.90;1.00;;;;;;5012524;28;20173;-83
2022/08/03 06:20:18;;;;;;;2.47;2.00;;;23.90;99.90;;;;;;5012364;28;20689;-84
2022/08/03 06:22:44;;;;;;;2.80;1.90;;;24.00;99.90;;;;;;5012546;28;20416;-84
2022/08/03 06:25:10;;;;;;;2.70;2.07;;;24.40;3.60;;;;;;5012470;28;20941;-83
2022/08/03 06:27:38;;;;;;;2.63;2.43;;;24.80;1.00;;;;;;5012620;28;20474;-84
2022/08/03 06:30:09;;;;;;;2.93;2.73;;;25.40;99.90;;;;;;5012599;28;20170;-84
2022/08/03 06:32:38;;;;;;;2.50;1.60;;;26.50;99.90;;;;;;5012447;28;20413;-85
2022/08/03 06:35:05;;;;;;;1.80;1.70;;;27.20;99.90;;;;;;5012228;28;20418;-86
2022/08/03 06:37:30;;;;;;;2.67;1.97;;;27.90;99.90;;;;;;4994778;28;20413;-85
2022/08/03 06:39:56;;;;;;;1.93;1.77;;;28.40;99.90;;;;;;5012257;28;20469;-85
2022/08/03 06:42:21;;;;;;;2.77;1.90;;;28.50;99.90;;;;;;5012340;28;20179;-85
2022/08/03 06:44:47;;;;;;;2.43;2.23;;;29.30;88.90;;;;;;5012395;28;20171;-85
2022/08/03 06:47:12;;;;;;;1.97;1.67;;;29.50;81.60;;;;;;4994777;28;20174;-86
2022/08/03 06:49:39;;;;;;;1.70;1.60;;;29.90;52.80;;;;;;5012391;28;20315;-86
2022/08/03 06:52:05;;;;;;;2.30;1.90;;;30.10;48.20;;;;;;5016085;28;20313;-84
2022/08/03 06:54:30;;;;;;;2.17;1.93;;;30.40;40.90;;;;;;5015880;28;20509;-87
2022/08/03 06:56:56;;;;;;;2.23;1.47;;;31.00;36.00;;;;;;5016096;28;20640;-83
2022/08/03 06:59:21;;;;;;;1.60;1.50;;;30.80;28.70;;;;;;5016194;28;20217;-85
2022/08/03 07:01:47;;;;;;;1.53;1.33;;;30.40;23.80;;;;;;5015640;28;20186;-85
2022/08/03 07:04:13;;;;;;;1.80;1.53;;;31.20;35.10;;;;;;5014882;28;20179;-85
2022/08/03 07:06:39;;;;;;;4.40;2.50;;;31.50;22.90;;;;;;5017423;28;20243;-90
2022/08/03 07:09:05;;;;;;;1.90;1.50;;;31.30;13.00;;;;;;5038089;28;20168;-85
2022/08/03 07:11:30;;;;;;;1.73;1.63;;;31.70;12.80;;;;;;5038958;28;20432;-84
2022/08/03 07:13:56;;;;;;;1.30;1.10;;;31.60;4.90;;;;;;5033927;28;20171;-88
2022/08/03 07:16:22;;;;;;;1.60;1.50;;;30.70;4.30;;;;;;5008425;28;20178;-87
2022/08/03 07:18:47;;;;;;;1.87;1.40;;;31.10;3.80;;;;;;5016992;28;20206;-93
2022/08/03 07:21:14;;;;;;;2.10;1.83;;;30.50;6.30;;;;;;5016821;28;20183;-86
2022/08/03 07:23:40;;;;;;;3.77;2.23;;;31.20;7.40;;;;;;5010244;28;20178;-90
2022/08/03 07:26:05;;;;;;;2.10;1.37;;;32.00;8.40;;;;;;4988741;28;20524;-89
2022/08/03 07:28:31;;;;;;;1.67;1.57;;;32.40;4.50;;;;;;4989893;28;20187;-89
2022/08/03 07:30:56;;;;;;;1.87;1.77;;;32.50;1.00;;;;;;5008128;28;20180;-83
2022/08/03 07:33:22;;;;;;;3.37;1.30;;;32.70;1.00;;;;;;5016602;28;20270;-84
2022/08/03 07:35:47;;;;;;;1.20;1.10;;;33.20;1.00;;;;;;4999746;28;20171;-85
2022/08/03 07:38:13;;;;;;;1.30;1.20;;;33.40;1.00;;;;;;5016719;28;20194;-90
2022/08/03 07:40:38;;;;;;;1.10;0.93;;;34.00;1.00;;;;;;4999825;28;20175;-88
2022/08/03 07:43:04;;;;;;;1.50;1.17;;;32.50;1.00;;;;;;5016533;28;20175;-88
2022/08/03 07:45:30;;;;;;;1.30;0.90;;;32.80;1.00;;;;;;5017609;28;20179;-89
2022/08/03 07:47:56;;;;;;;1.50;0.90;;;32.60;1.00;;;;;;5017026;28;20167;-91
2022/08/03 07:50:22;;;;;;;1.37;1.03;;;32.50;1.00;;;;;;5016404;28;21049;-91
2022/08/03 07:52:48;;;;;;;3.17;1.13;;;32.40;1.00;;;;;;5016212;28;20174;-91
2022/08/03 07:55:14;;;;;;;1.90;0.80;;;32.90;1.00;;;;;;5016265;28;20163;-89
2022/08/03 07:57:40;;;;;;;1.30;0.63;;;33.50;1.00;;;;;;5016427;28;20501;-92
2022/08/03 08:00:12;;;;;;;1.17;0.70;;;34.30;1.00;;;;;;4998627;28;20544;-93
2022/08/03 08:02:39;;;;;;;1.20;0.70;;;34.80;1.00;;;;;;5015843;28;20739;-89
2022/08/03 08:05:05;;;;;;;1.10;0.73;;;34.80;1.00;;;;;;5016420;28;20441;-92
2022/08/03 08:07:30;;;;;;;2.60;0.40;;;34.90;1.00;;;;;;5016108;28;20899;-93
2022/08/03 08:09:56;;;;;;;1.23;0.43;;;34.60;1.00;;;;;;5016149;28;20250;-89
2022/08/03 08:12:21;;;;;;;0.87;0.50;;;34.50;1.00;;;;;;5016083;28;20175;-94
2022/08/03 08:14:47;;;;;;;1.10;0.40;;;33.90;1.00;;;;;;5013985;28;20187;-91
2022/08/03 08:17:13;;;;;;;1.00;0.70;;;33.00;1.00;;;;;;4997188;28;20192;-87
2022/08/03 08:19:38;;;;;;;1.20;0.97;;;32.50;1.00;;;;;;5008261;28;20227;-89
2022/08/03 08:22:05;;;;;;;2.60;0.97;;;32.40;1.00;;;;;;5014074;28;20278;-87
2022/08/03 08:24:32;;;;;;;1.13;0.80;;;33.40;1.00;;;;;;5014509;28;20179;-86
2022/08/03 08:26:58;;;;;;;1.30;0.80;;;33.80;1.00;;;;;;5014980;28;20410;-89
2022/08/03 08:29:24;;;;;;;1.10;1.00;;;34.20;1.00;;;;;;4997370;28;20430;-90
2022/08/03 08:31:49;;;;;;;3.70;0.67;;;34.30;1.00;;;;;;5014413;28;20437;-92
2022/08/03 08:34:15;;;;;;;1.40;0.70;;;34.80;1.00;;;;;;5015126;28;20190;-93
2022/08/03 08:36:44;;;;;;;0.97;0.53;;;34.90;1.00;;;;;;5013154;28;20186;-90
2022/08/03 08:39:09;;;;;;;1.40;0.60;;;35.10;1.00;;;;;;5013215;28;20683;-90
2022/08/03 08:41:35;;;;;;;0.87;0.30;;;34.70;1.00;;;;;;5013828;28;20429;-88
2022/08/03 08:44:01;;;;;;;1.30;0.53;;;34.70;1.00;;;;;;5013030;28;20186;-87
2022/08/03 08:46:31;;;;;;;0.90;0.40;;;33.80;1.00;;;;;;5013399;28;20698;-88
2022/08/03 08:48:58;;;;;;;0.97;0.80;;;33.90;1.00;;;;;;5001666;28;21051;-90
2022/08/03 08:51:29;;;;;;;2.80;0.80;;;34.40;1.00;;;;;;5014623;28;20464;-89
2022/08/03 08:54:00;;;;;;;1.03;0.40;;;34.70;1.00;;;;;;5014336;28;20450;-87
2022/08/03 08:56:26;;;;;;;1.37;0.40;;;35.00;1.00;;;;;;5014124;28;20450;-90
2022/08/03 08:58:56;;;;;;;1.10;0.50;;;35.40;1.00;;;;;;4994823;28;20443;-88
2022/08/03 09:01:22;;;;;;;0.70;0.30;;;35.40;1.00;;;;;;5013821;28;20442;-87
2022/08/03 09:03:48;;;;;;;0.97;0.50;;;34.90;1.00;;;;;;5013071;28;20426;-88
2022/08/03 09:06:14;;;;;;;0.70;0.40;;;;;;;;;;5013325;28;20266;-87
2022/08/03 09:08:40;;;;;;;1.10;0.40;;;36.10;1.00;;;;;;5012688;28;20725;-91
2022/08/03 09:11:06;;;;;;;0.70;0.47;;;36.10;1.00;;;;;;5013538;28;20421;-91
2022/08/03 09:13:33;;;;;;;1.53;0.60;;;36.40;1.00;;;;;;5012596;28;20590;-89
2022/08/03 09:16:08;;;;;;;1.00;0.50;;;36.20;1.00;;;;;;4991813;28;20986;-89
2022/08/03 09:18:34;;;;;;;1.30;0.70;;;36.20;1.00;;;;;;5026179;28;20425;-89
2022/08/03 09:21:19;;;;;;;1.17;0.57;;;36.20;1.00;;;;;;4991684;28;20418;-91
2022/08/03 09:23:47;;;;;;;0.80;0.33;;;36.20;1.00;;;;;;5002291;28;20648;-87
2022/08/03 09:26:19;;;;;;;1.47;0.60;;;36.30;1.00;;;;;;4998672;28;20408;-88
2022/08/03 09:28:45;;;;;;;1.10;0.50;;;35.90;1.00;;;;;;5000104;28;20827;-86
2022/08/03 09:31:10;;;;;;;4.10;0.83;;;36.00;1.00;;;;;;5004363;28;20419;-86
2022/08/03 09:33:47;;;;;;;0.70;0.40;;;35.50;1.00;;;;;;5003428;28;20238;-87
2022/08/03 09:36:38;;;;;;;1.07;0.40;;;35.40;1.00;;;;;;5003415;28;20167;-87
2022/08/03 09:39:06;;;;;;;1.60;0.37;;;34.90;1.00;;;;;;4997145;28;20411;-90
2022/08/03 09:41:32;;;;;;;0.80;0.33;;;35.20;1.00;;;;;;4985008;28;20422;-87
2022/08/03 09:43:58;;;;;;;1.40;0.30;;;35.30;1.00;;;;;;5003404;28;20460;-87
2022/08/03 09:46:24;;;;;;;1.20;0.50;;;35.10;1.00;;;;;;5008210;28;20418;-91
2022/08/03 09:48:49;;;;;;;1.53;0.93;;;35.80;1.00;;;;;;4996194;28;20558;-88
2022/08/03 09:51:17;;;;;;;1.73;0.70;;;36.00;1.00;;;;;;5003048;28;20229;-89
2022/08/03 09:53:46;;;;;;;2.10;0.93;;;36.30;1.00;;;;;;5010404;28;20252;-90
2022/08/03 09:56:12;;;;;;;1.43;0.70;;;36.40;1.00;;;;;;5013020;28;20410;-91
2022/08/03 09:58:49;;;;;;;1.13;0.60;;;35.90;1.00;;;;;;5013790;28;20940;-92
2022/08/03 10:01:15;;;;;;;0.87;0.70;;;35.30;1.00;;;;;;5013569;28;20501;-92
2022/08/03 10:03:41;;;;;;;1.40;0.70;;;35.60;1.00;;;;;;5013068;28;21001;-89
2022/08/03 10:06:19;;;;;;;0.80;0.50;;;36.30;1.00;;;;;;5013350;28;20652;-91
2022/08/03 10:09:06;;;;;;;0.80;0.30;;;36.00;1.00;;;;;;5013162;28;20259;-87
2022/08/03 10:11:33;;;;;;;0.70;0.50;;;36.00;1.00;;;;;;5013819;28;20516;-89
2022/08/03 10:14:02;;;;;;;1.10;0.60;;;35.60;1.00;;;;;;4996149;28;20434;-89
2022/08/03 10:16:33;;;;;;;0.60;0.40;;;35.70;1.00;;;;;;5016927;28;20414;-90
2022/08/03 10:19:05;;;;;;;0.80;0.53;;;36.00;1.00;;;;;;5002427;28;20918;-94
2022/08/03 10:21:33;;;;;;;0.70;0.40;;;35.70;1.00;;;;;;4999237;28;20514;-89
2022/08/03 10:24:02;;;;;;;0.90;0.50;;;35.70;1.00;;;;;;4998546;28;20480;-87
2022/08/03 10:26:30;;;;;;;1.00;0.50;;;35.90;1.00;;;;;;4999978;28;20426;-90
2022/08/03 10:29:00;;;;;;;1.10;0.37;;;36.30;1.00;;;;;;4999095;28;20465;-88
2022/08/03 10:31:32;;;;;;;0.80;0.33;;;36.50;1.00;;;;;;5015659;28;20405;-89
2022/08/03 10:33:59;;;;;;;1.63;0.60;;;36.80;1.00;;;;;;5015471;28;20421;-87
2022/08/03 10:36:29;;;;;;;1.60;0.80;;;36.70;1.00;;;;;;5015906;28;20811;-89
2022/08/03 10:38:55;;;;;;;2.20;0.67;;;36.30;1.00;;;;;;5015994;28;20822;-86
2022/08/03 10:41:25;;;;;;;0.50;0.50;;;36.40;1.00;;;;;;5001013;28;20429;-92
2022/08/03 10:44:02;;;;;;;0.63;0.50;;;36.60;1.00;;;;;;4999354;28;20414;-86
2022/08/03 10:46:28;;;;;;;1.43;0.80;;;36.80;1.00;;;;;;5016626;28;20757;-90
2022/08/03 10:48:57;;;;;;;1.43;0.40;;;36.80;1.00;;;;;;4997873;28;20464;-87
2022/08/03 10:51:23;;;;;;;0.60;0.47;;;36.70;1.00;;;;;;4998763;28;20256;-89
2022/08/03 10:53:49;;;;;;;1.23;0.60;;;36.60;1.00;;;;;;5017897;28;20413;-93
2022/08/03 10:59:45;;;;;;;1.67;0.93;;;37.20;1.00;;;;;;5018772;28;20181;-90
2022/08/03 11:02:13;;;;;;;1.00;0.80;;;37.00;1.00;;;;;;5001877;28;20433;-93
2022/08/03 11:04:39;;;;;;;2.63;1.23;;;37.20;1.00;;;;;;5016951;28;20948;-91
2022/08/03 11:07:19;;;;;;;1.30;1.10;;;37.50;1.00;;;;;;5017213;28;20417;-92
2022/08/03 11:09:47;;;;;;;6.83;0.90;;;37.50;1.00;;;;;;5017466;28;20547;-93
2022/08/03 11:12:31;;;;;;;1.20;0.77;;;37.50;1.00;;;;;;4999234;28;20417;-87
2022/08/03 11:15:05;;;;;;;1.23;0.87;;;37.10;1.00;;;;;;5017634;28;20462;-88
2022/08/03 11:17:32;;;;;;;0.80;0.80;;;37.30;1.00;;;;;;5004664;28;20524;-94
2022/08/03 11:19:58;;;;;;;2.10;1.20;;;37.40;1.00;;;;;;5018016;28;20421;-89
2022/08/03 11:22:24;;;;;;;1.10;0.90;;;37.10;1.00;;;;;;4999383;28;20779;-91
2022/08/03 11:24:53;;;;;;;1.40;0.83;;;37.50;1.00;;;;;;5016252;28;20206;-86
2022/08/03 11:27:21;;;;;;;0.70;0.53;;;37.70;1.00;;;;;;5015657;28;20167;-85
2022/08/03 11:30:09;;;;;;;1.10;0.80;;;37.60;1.00;;;;;;5015433;28;20465;-90
2022/08/03 11:32:42;;;;;;;1.23;1.13;;;37.90;1.00;;;;;;4998906;28;20425;-92
2022/08/03 11:35:12;;;;;;;1.27;0.80;;;37.60;1.00;;;;;;5017428;28;20925;-89
2022/08/03 11:37:53;;;;;;;1.03;0.90;;;37.90;1.00;;;;;;5009965;28;20466;-90
2022/08/03 11:40:39;;;;;;;0.70;0.70;;;37.50;1.00;;;;;;4997323;28;20425;-93
2022/08/03 11:43:30;;;;;;;0.80;0.60;;;37.60;1.00;;;;;;5014633;28;20465;-87
2022/08/03 11:45:59;;;;;;;3.00;0.80;;;;;;;;;;5016055;28;20413;-90
2022/08/03 11:48:45;;;;;;;0.87;0.80;;;38.10;1.00;;;;;;5016057;28;20488;-90
2022/08/03 11:51:25;;;;;;;3.03;1.27;;;37.70;1.00;;;;;;5015929;28;20480;-87
2022/08/03 11:53:59;;;;;;;1.50;1.10;;;37.80;1.00;;;;;;4998475;28;20416;-92
2022/08/03 11:56:26;;;;;;;2.40;0.80;;;37.40;1.00;;;;;;5015441;28;20456;-90
2022/08/03 11:58:57;;;;;;;1.07;1.00;;;37.00;1.00;;;;;;4997743;28;20419;-90
2022/08/03 12:01:23;;;;;;;0.87;0.87;;;37.70;1.00;;;;;;5015210;28;20498;-91
2022/08/03 12:03:49;;;;;;;0.87;0.87;;;37.70;1.00;;;;;;5014169;28;20508;-90
2022/08/03 12:06:19;;;;;;;2.17;1.03;;;37.70;1.00;;;;;;4997663;28;20453;-90
2022/08/03 12:08:45;;;;;;;1.87;1.20;;;37.80;1.00;;;;;;4998125;28;20268;-94
2022/08/03 12:11:13;;;;;;;1.17;0.90;;;37.90;1.00;;;;;;4998649;28;20425;-90
2022/08/03 12:13:40;;;;;;;1.17;0.97;;;37.90;1.00;;;;;;4997753;28;20294;-92
2022/08/03 12:16:06;;;;;;;0.80;0.80;;;37.60;1.00;;;;;;4997317;28;20426;-89
2022/08/03 12:18:32;;;;;;;0.90;0.90;;;37.80;1.00;;;;;;5014286;28;20406;-90
2022/08/03 12:21:07;;;;;;;0.97;0.70;;;37.50;1.00;;;;;;5013735;28;20421;-91
2022/08/03 12:23:32;;;;;;;1.27;0.80;;;37.00;1.00;;;;;;5014681;28;20936;-90
2022/08/03 12:26:08;;;;;;;1.57;0.90;;;37.10;1.00;;;;;;5014215;28;20421;-93
2022/08/03 12:28:35;;;;;;;1.37;0.70;;;37.40;1.00;;;;;;4998192;28;20213;-94
2022/08/03 12:31:05;;;;;;;1.47;0.80;;;36.70;1.00;;;;;;4996003;28;20429;-91
2022/08/03 12:33:31;;;;;;;1.47;1.37;;;36.90;1.00;;;;;;4995716;28;20429;-91
2022/08/03 12:36:09;;;;;;;2.23;0.93;;;37.70;1.00;;;;;;4996002;28;20420;-91
2022/08/03 12:38:37;;;;;;;0.87;0.80;;;37.80;1.00;;;;;;5010141;28;20176;-90
2022/08/03 12:41:13;;;;;;;2.23;1.23;;;38.10;1.00;;;;;;4995927;28;21052;-88
2022/08/03 12:43:48;;;;;;;1.20;1.13;;;38.00;1.00;;;;;;5013696;28;20432;-88
2022/08/03 12:46:15;;;;;;;1.23;0.70;;;37.80;1.00;;;;;;4996331;28;20413;-93
2022/08/03 12:49:10;;;;;;;1.98;1.85;;;37.80;1.00;;;;;;4996551;28;20575;-89
2022/08/03 12:51:59;;;;;;;0.90;0.90;;;37.50;1.00;;;;;;4995806;28;20465;-94
2022/08/03 12:54:30;;;;;;;1.42;1.02;;;37.80;1.00;;;;;;5004671;28;20421;-91
2022/08/03 12:57:00;;;;;;;1.48;0.98;;;38.00;1.00;;;;;;4988560;28;20430;-92
2022/08/03 12:59:31;;;;;;;1.50;1.10;;;38.10;1.00;;;;;;5007917;28;20441;-91
2022/08/03 13:01:57;;;;;;;0.77;0.77;;;37.40;1.00;;;;;;4988887;28;20577;-90
2022/08/03 13:04:31;;;;;;;0.77;0.67;;;37.30;1.00;;;;;;4989197;28;20414;-90
2022/08/03 13:07:08;;;;;;;1.27;0.88;;;37.80;1.00;;;;;;4991087;28;20465;-92
2022/08/03 13:09:47;;;;;;;0.60;0.60;;;37.40;1.00;;;;;;4997007;28;20471;-93